Time;durP1;ratioP1;P1;durP2;ratioP2;P2;SDS_P1;SDS_P2;PMS_P1;PMS_P2;Temp;Humidity;BMP_temperature;BMP_pressure;BME280_temperature;BME280_humidity;BME280_pressure;Samples;Min_cycle;Max_cycle;Signal;HPM_P1;HPM_P2
2023/01/10 00:00:33;;;;;;;;;;;;;;;7.66;81.39;101261.47;5087519;28;20007;-50
2023/01/10 00:02:59;;;;;;;;;;;;;;;7.64;81.51;101268.19;5091673;28;19920;-46
2023/01/10 00:05:24;;;;;;;;;;;;;;;7.62;81.53;101280.06;5091490;28;19926;-51
2023/01/10 00:07:49;;;;;;;;;;;;;;;7.62;81.53;101280.94;5092312;28;19984;-51
2023/01/10 00:10:15;;;;;;;;;;;;;;;7.60;81.62;101290.22;5087483;28;19934;-51
2023/01/10 00:15:23;;;;;;;;;;;;;;;7.60;81.73;101295.34;5083242;28;20023;-49
2023/01/10 00:17:49;;;;;;;;;;;;;;;7.59;81.50;101306.41;5089502;28;20015;-49
2023/01/10 00:20:14;;;;;;;;;;;;;;;7.58;81.57;101303.75;5084718;28;19924;-53
2023/01/10 00:22:39;;;;;;;;;;;;;;;7.58;81.54;101319.97;5084184;28;20065;-51
2023/01/10 00:25:05;;;;;;;;;;;;;;;7.56;81.38;101318.16;5081066;28;19912;-49
2023/01/10 00:27:30;;;;;;;;;;;;;;;7.52;81.26;101323.16;5082098;28;19919;-48
2023/01/10 00:29:57;;;;;;;;;;;;;;;7.51;81.10;101325.59;5081564;28;19982;-52
2023/01/10 00:32:23;;;;;;;;;;;;;;;7.48;80.99;101328.91;5088388;28;19966;-50
2023/01/10 00:34:48;;;;;;;;;;;;;;;7.47;81.13;101328.84;5091352;28;19963;-51
2023/01/10 00:37:13;;;;;;;;;;;;;;;7.44;80.96;101329.56;5087061;28;19969;-51
2023/01/10 00:39:39;;;;;;;;;;;;;;;7.43;81.21;101347.41;5090433;28;19920;-49
2023/01/10 00:44:48;;;;;;;;;;;;;;;7.41;80.58;101349.91;5090117;28;19993;-50
2023/01/10 00:47:13;;;;;;;;;;;;;;;7.38;80.56;101354.84;5089087;28;19920;-49
2023/01/10 00:49:39;;;;;;;;;;;;;;;7.35;80.36;101352.16;5084553;28;19916;-51
2023/01/10 00:52:04;;;;;;;;;;;;;;;7.33;80.49;101346.06;5085266;28;19923;-48
2023/01/10 00:54:29;;;;;;;;;;;;;;;7.31;80.33;101352.78;5090973;28;19923;-50
2023/01/10 00:56:55;;;;;;;;;;;;;;;7.30;80.54;101345.06;5086867;28;19923;-50
2023/01/10 00:59:21;;;;;;;;;;;;;;;7.28;80.68;101352.66;5083742;28;19924;-49
2023/01/10 01:01:46;;;;;;;;;;;;;;;7.25;80.64;101353.38;5087486;28;19985;-48
2023/01/10 01:04:11;;;;;;;;;;;;;;;7.22;80.46;101355.78;5085931;28;20007;-49
2023/01/10 01:06:36;;;;;;;;;;;;;;;7.19;80.73;101358.19;5097498;27;19951;-48
2023/01/10 01:09:01;;;;;;;;;;;;;;;7.20;80.65;101367.59;5082227;28;19974;-48
2023/01/10 01:11:27;;;;;;;;;;;;;;;7.20;80.84;101370.16;5065653;28;19959;-48
2023/01/10 01:13:52;;;;;;;;;;;;;;;7.20;80.84;101374.41;5081123;28;19915;-44
2023/01/10 01:16:17;;;;;;;;;;;;;;;7.20;80.78;101377.84;5081538;28;19922;-52
2023/01/10 01:18:42;;;;;;;;;;;;;;;7.20;80.81;101382.94;5086444;28;20014;-50
2023/01/10 01:21:08;;;;;;;;;;;;;;;7.21;80.82;101387.25;5078651;28;19959;-50
2023/01/10 01:23:33;;;;;;;;;;;;;;;7.21;81.02;101391.50;5094335;27;20380;-51
2023/01/10 01:25:59;;;;;;;;;;;;;;;7.22;81.13;101399.28;5079829;28;19920;-46
2023/01/10 01:28:24;;;;;;;;;;;;;;;7.22;80.93;101399.28;5084490;28;19926;-52
2023/01/10 01:30:50;;;;;;;;;;;;;;;7.22;81.04;101406.06;5083594;28;20366;-49
2023/01/10 01:33:15;;;;;;;;;;;;;;;7.20;81.16;101405.09;5089037;28;19924;-51
2023/01/10 01:35:42;;;;;;;;;;;;;;;7.20;81.32;101407.66;5087342;28;20014;-46
2023/01/10 01:38:07;;;;;;;;;;;;;;;7.21;81.44;101410.28;5091232;28;19915;-49
2023/01/10 01:40:32;;;;;;;;;;;;;;;7.20;81.59;101405.09;5088187;28;19931;-48
2023/01/10 01:42:57;;;;;;;;;;;;;;;7.18;81.47;101412.69;5095055;28;20275;-48
2023/01/10 01:45:23;;;;;;;;;;;;;;;7.18;81.67;101425.50;5087503;28;19920;-51
2023/01/10 01:47:54;;;;;;;;;;;;;;;7.17;81.75;101410.06;5085451;28;19916;-48
2023/01/10 01:50:31;;;;;;;;;;;;;;;7.15;81.90;101415.09;5086292;28;20332;-50
2023/01/10 01:52:59;;;;;;;;;;;;;;;7.13;82.37;101413.28;5082924;28;19912;-51
2023/01/10 01:55:25;;;;;;;;;;;;;;;7.14;82.49;101423.56;5091516;28;20389;-49
2023/01/10 01:57:52;;;;;;;;;;;;;;;7.13;82.43;101429.50;5077559;28;19920;-47
2023/01/10 02:00:17;;;;;;;;;;;;;;;7.14;82.59;101423.56;5077697;28;19956;-50
2023/01/10 02:02:48;;;;;;;;;;;;;;;7.13;82.75;101424.38;5081737;28;20016;-50
2023/01/10 02:05:15;;;;;;;;;;;;;;;7.13;83.12;101432.03;5079305;28;19934;-46
2023/01/10 02:07:42;;;;;;;;;;;;;;;7.15;83.17;101432.13;5080360;28;19912;-48
2023/01/10 02:10:20;;;;;;;;;;;;;;;7.13;83.03;101436.28;5078030;28;20291;-49
2023/01/10 02:12:48;;;;;;;;;;;;;;;7.13;83.66;101443.97;5084401;28;19911;-50
2023/01/10 02:15:13;;;;;;;;;;;;;;;7.10;83.80;101447.25;5079826;28;19912;-50
2023/01/10 02:17:39;;;;;;;;;;;;;;;7.08;84.09;101450.50;5080522;28;20349;-50
2023/01/10 02:20:09;;;;;;;;;;;;;;;7.09;84.38;101447.16;5082332;28;19920;-44
2023/01/10 02:22:53;;;;;;;;;;;;;;;7.07;84.46;101444.53;5079605;28;19916;-50
2023/01/10 02:25:36;;;;;;;;;;;;;;;7.08;84.73;101447.94;5078260;28;19912;-51
2023/01/10 02:28:20;;;;;;;;;;;;;;;7.09;85.03;101448.03;5079840;28;20462;-49
2023/01/10 02:30:57;;;;;;;;;;;;;;;7.10;85.04;101452.38;5079532;28;19922;-50
2023/01/10 02:33:30;;;;;;;;;;;;;;;7.09;85.18;101444.59;5080166;28;19912;-50
2023/01/10 02:35:55;;;;;;;;;;;;;;;7.09;85.37;101442.03;5076974;28;20465;-50
2023/01/10 02:38:39;;;;;;;;;;;;;;;7.10;85.23;101454.00;5078526;28;19916;-51
2023/01/10 02:41:14;;;;;;;;;;;;;;;7.11;85.23;101450.69;5083749;28;19947;-48
2023/01/10 02:43:49;;;;;;;;;;;;;;;7.09;85.15;101448.03;5080110;28;19925;-52
2023/01/10 02:46:17;;;;;;;;;;;;;;;7.10;85.05;101448.91;5081952;28;20380;-50
2023/01/10 02:48:42;;;;;;;;;;;;;;;7.09;85.13;101449.72;5088910;28;19920;-44
2023/01/10 02:51:27;;;;;;;;;;;;;;;7.09;85.13;101453.13;5077859;28;19930;-51
2023/01/10 02:54:07;;;;;;;;;;;;;;;7.08;85.01;101456.50;5077892;28;19935;-45
2023/01/10 02:57:08;;;;;;;;;;;;;;;7.08;84.82;101458.19;5095442;28;19912;-50
2023/01/10 02:59:48;;;;;;;;;;;;;;;7.07;84.90;101454.75;5063493;28;20008;-48
2023/01/10 03:02:20;;;;;;;;;;;;;;;7.05;84.98;101455.47;5073794;28;19912;-50
2023/01/10 03:05:02;;;;;;;;;;;;;;;7.04;84.81;101458.81;5090681;28;19919;-49
2023/01/10 03:07:42;;;;;;;;;;;;;;;7.03;84.64;101468.16;5089738;28;20379;-46
2023/01/10 03:10:10;;;;;;;;;;;;;;;7.03;84.96;101467.28;5085190;28;19966;-50
2023/01/10 03:12:45;;;;;;;;;;;;;;;7.01;84.75;101477.44;5089856;28;19912;-48
2023/01/10 03:15:12;;;;;;;;;;;;;;;6.99;84.99;101482.50;5091577;28;20355;-51
2023/01/10 03:17:39;;;;;;;;;;;;;;;6.98;85.03;101485.84;5093975;28;20324;-47
2023/01/10 03:20:05;;;;;;;;;;;;;;;6.96;85.16;101501.88;5086610;28;19937;-50
2023/01/10 03:22:32;;;;;;;;;;;;;;;6.96;84.94;101505.31;5091967;28;20365;-48
2023/01/10 03:25:00;;;;;;;;;;;;;;;6.96;84.95;101507.88;5087135;28;19924;-50
2023/01/10 03:27:32;;;;;;;;;;;;;;;6.98;85.07;101516.53;5092410;28;19928;-50
2023/01/10 03:30:17;;;;;;;;;;;;;;;6.97;85.14;101518.97;5084711;28;19912;-47
2023/01/10 03:32:43;;;;;;;;;;;;;;;6.97;84.91;101514.75;5081477;28;19912;-46
2023/01/10 03:35:09;;;;;;;;;;;;;;;6.97;85.13;101512.19;5088650;28;19926;-49
2023/01/10 03:37:43;;;;;;;;;;;;;;;6.98;84.95;101516.53;5083050;28;19912;-51
2023/01/10 03:40:24;;;;;;;;;;;;;;;6.96;85.06;101518.09;5082093;28;20416;-51
2023/01/10 03:45:42;;;;;;;;;;;;;;;6.96;84.91;101525.78;5084416;28;19935;-52
2023/01/10 03:48:09;;;;;;;;;;;;;;;6.96;84.83;101525.78;5088327;28;19992;-50
2023/01/10 03:50:36;;;;;;;;;;;;;;;6.97;84.69;101534.31;5085268;28;19966;-49
2023/01/10 03:53:01;;;;;;;;;;;;;;;6.95;84.75;101535.94;5078629;28;20372;-49
2023/01/10 03:55:27;;;;;;;;;;;;;;;6.95;84.50;101541.03;5082644;28;19916;-48
2023/01/10 03:57:52;;;;;;;;;;;;;;;6.94;84.71;101541.84;5083460;28;20005;-49
2023/01/10 04:00:18;;;;;;;;;;;;;;;6.92;84.83;101548.56;5087462;28;20085;-49
2023/01/10 04:02:43;;;;;;;;;;;;;;;6.93;84.85;101553.75;5094911;28;19973;-51
2023/01/10 04:05:09;;;;;;;;;;;;;;;6.94;84.58;101560.63;5088729;28;20296;-48
2023/01/10 04:07:34;;;;;;;;;;;;;;;6.95;84.52;101567.50;5090077;28;20292;-50
2023/01/10 04:09:59;;;;;;;;;;;;;;;6.95;84.58;101567.50;5087913;28;19941;-48
2023/01/10 04:12:25;;;;;;;;;;;;;;;6.94;84.45;101565.72;5092496;28;20002;-51
2023/01/10 04:14:50;;;;;;;;;;;;;;;6.95;84.43;101571.72;5090118;28;19986;-52
2023/01/10 04:17:16;;;;;;;;;;;;;;;6.94;84.47;101569.97;5086174;28;19923;-47
2023/01/10 04:19:42;;;;;;;;;;;;;;;6.93;84.29;101574.22;5087527;28;20373;-45
2023/01/10 04:22:07;;;;;;;;;;;;;;;6.93;84.29;101576.75;5087837;28;20319;-48
2023/01/10 04:24:33;;;;;;;;;;;;;;;6.92;84.12;101592.91;5086833;28;19916;-50
2023/01/10 04:26:58;;;;;;;;;;;;;;;6.91;84.47;101595.34;5087615;28;19912;-51
2023/01/10 04:29:24;;;;;;;;;;;;;;;6.91;84.25;101591.13;5087219;28;19958;-50
2023/01/10 04:31:49;;;;;;;;;;;;;;;6.91;84.24;101595.34;5085714;28;19924;-49
2023/01/10 04:34:15;;;;;;;;;;;;;;;6.90;84.33;101589.38;5072965;28;19911;-50
2023/01/10 04:36:40;;;;;;;;;;;;;;;6.89;84.42;101587.59;5083949;28;19927;-50
2023/01/10 04:39:06;;;;;;;;;;;;;;;6.90;84.32;101585.94;5080134;28;20372;-50
2023/01/10 04:41:31;;;;;;;;;;;;;;;6.88;84.37;101577.31;5082147;28;19924;-47
2023/01/10 04:43:56;;;;;;;;;;;;;;;6.89;84.20;101576.50;5081529;28;19961;-49
2023/01/10 04:46:21;;;;;;;;;;;;;;;6.87;84.36;101573.88;5079131;28;20372;-49
2023/01/10 04:48:47;;;;;;;;;;;;;;;6.87;84.38;101578.13;5086512;28;19974;-49
2023/01/10 04:51:12;;;;;;;;;;;;;;;6.86;84.27;101592.56;5082309;28;19966;-50
2023/01/10 04:53:37;;;;;;;;;;;;;;;6.87;84.39;101596.88;5084573;28;19915;-48
2023/01/10 04:56:03;;;;;;;;;;;;;;;6.85;84.56;101601.00;5078012;28;19959;-54
2023/01/10 04:58:31;;;;;;;;;;;;;;;6.84;84.48;101595.81;5078460;28;20271;-51
2023/01/10 05:00:56;;;;;;;;;;;;;;;6.83;84.32;101604.28;5080412;28;19939;-48
2023/01/10 05:03:21;;;;;;;;;;;;;;;6.82;84.22;101600.88;5077730;28;20016;-45
2023/01/10 05:05:46;;;;;;;;;;;;;;;6.80;84.46;101587.13;5080524;28;19969;-48
2023/01/10 05:08:12;;;;;;;;;;;;;;;6.80;84.27;101592.25;5081165;28;19923;-47
2023/01/10 05:10:37;;;;;;;;;;;;;;;6.79;84.20;101594.69;5080559;28;19924;-51
2023/01/10 05:13:02;;;;;;;;;;;;;;;6.78;84.32;101598.91;5085411;28;19923;-50
2023/01/10 05:15:27;;;;;;;;;;;;;;;6.77;84.07;101607.41;5064042;28;20329;-49
2023/01/10 05:17:59;;;;;;;;;;;;;;;6.76;84.05;101615.88;5084433;28;20390;-52
2023/01/10 05:20:24;;;;;;;;;;;;;;;6.73;84.06;101625.91;5080816;28;19920;-49
2023/01/10 05:22:50;;;;;;;;;;;;;;;6.72;84.26;101639.47;5082513;28;19969;-50
2023/01/10 05:25:15;;;;;;;;;;;;;;;6.73;84.34;101648.91;5078390;28;20277;-50
2023/01/10 05:27:42;;;;;;;;;;;;;;;6.70;84.32;101656.41;5079035;28;20295;-49
2023/01/10 05:30:09;;;;;;;;;;;;;;;6.67;84.18;101640.88;5081805;28;19955;-50
2023/01/10 05:32:34;;;;;;;;;;;;;;;6.66;84.43;101641.69;5090179;28;19920;-51
2023/01/10 05:34:59;;;;;;;;;;;;;;;6.65;84.28;101645.94;5088549;28;20287;-49
2023/01/10 05:37:24;;;;;;;;;;;;;;;6.65;84.32;101652.72;5087872;28;19919;-49
2023/01/10 05:39:50;;;;;;;;;;;;;;;6.65;84.61;101650.16;5079302;28;19920;-51
2023/01/10 05:42:15;;;;;;;;;;;;;;;6.63;84.32;101644.97;5085073;28;19927;-50
2023/01/10 05:44:40;;;;;;;;;;;;;;;6.66;84.31;101649.38;5087811;28;20377;-49
2023/01/10 05:47:05;;;;;;;;;;;;;;;6.64;84.22;101645.84;5093340;28;20402;-49
2023/01/10 05:49:31;;;;;;;;;;;;;;;6.64;84.63;101661.19;5089148;28;20370;-50
2023/01/10 05:51:56;;;;;;;;;;;;;;;6.64;84.77;101672.28;5089158;28;19955;-50
2023/01/10 05:54:21;;;;;;;;;;;;;;;6.63;84.76;101675.63;5089160;28;19942;-51
2023/01/10 05:56:46;;;;;;;;;;;;;;;6.63;84.86;101677.31;5091740;28;20015;-50
2023/01/10 05:59:12;;;;;;;;;;;;;;;6.62;85.04;101673.88;5088404;28;19916;-52
2023/01/10 06:01:37;;;;;;;;;;;;;;;6.64;85.04;101679.06;5081815;28;19931;-50
2023/01/10 06:04:02;;;;;;;;;;;;;;;6.64;85.16;101681.63;5082437;28;19920;-46
2023/01/10 06:06:27;;;;;;;;;;;;;;;6.63;85.13;101685.84;5076699;28;20388;-51
2023/01/10 06:08:55;;;;;;;;;;;;;;;6.66;85.09;101680.03;5082896;28;20391;-52
2023/01/10 06:11:20;;;;;;;;;;;;;;;6.67;84.79;101680.13;5084735;28;20430;-52
2023/01/10 06:13:47;;;;;;;;;;;;;;;6.66;84.72;101680.91;5079724;28;19912;-47
2023/01/10 06:16:13;;;;;;;;;;;;;;;6.67;84.97;101682.69;5082722;28;20372;-45
2023/01/10 06:18:38;;;;;;;;;;;;;;;6.69;84.75;101680.22;5081965;28;19967;-49
2023/01/10 06:21:03;;;;;;;;;;;;;;;6.69;84.90;101685.34;5077342;28;19923;-51
2023/01/10 06:23:29;;;;;;;;;;;;;;;6.68;84.89;101689.56;5085393;28;19916;-50
2023/01/10 06:25:54;;;;;;;;;;;;;;;6.70;84.85;101699.88;5081203;28;19916;-49
2023/01/10 06:28:19;;;;;;;;;;;;;;;6.71;84.97;101701.63;5079740;28;19916;-49
2023/01/10 06:30:45;;;;;;;;;;;;;;;6.70;84.75;101697.31;5081902;28;20794;-51
2023/01/10 06:33:10;;;;;;;;;;;;;;;6.70;84.70;101698.19;5081828;28;19990;-50
2023/01/10 06:35:36;;;;;;;;;;;;;;;6.71;84.63;101696.50;5086385;28;19973;-50
2023/01/10 06:38:02;;;;;;;;;;;;;;;6.71;84.54;101694.84;5081300;28;20307;-46
2023/01/10 06:40:27;;;;;;;;;;;;;;;6.69;84.58;101701.53;5086662;28;19959;-48
2023/01/10 06:42:52;;;;;;;;;;;;;;;6.70;84.48;101704.97;5087256;28;19931;-51
2023/01/10 06:45:18;;;;;;;;;;;;;;;6.70;84.40;101707.53;5090681;28;19965;-55
2023/01/10 06:47:43;;;;;;;;;;;;;;;6.69;84.32;101705.78;5089436;28;20254;-50
2023/01/10 06:50:09;;;;;;;;;;;;;;;6.68;84.33;101694.69;5087222;28;19968;-51
2023/01/10 06:52:34;;;;;;;;;;;;;;;6.69;84.36;101710.88;5089524;28;19927;-47
2023/01/10 06:54:59;;;;;;;;;;;;;;;6.69;83.92;101726.22;5085633;28;19924;-51
2023/01/10 06:57:27;;;;;;;;;;;;;;;6.67;83.96;101718.47;5085416;28;19920;-51
2023/01/10 06:59:52;;;;;;;;;;;;;;;6.65;83.69;101720.03;5087645;28;19915;-50
2023/01/10 07:02:17;;;;;;;;;;;;;;;6.62;83.71;101735.22;5089619;28;19961;-47
2023/01/10 07:04:42;;;;;;;;;;;;;;;6.58;83.54;101740.06;5086710;28;20361;-50
2023/01/10 07:07:08;;;;;;;;;;;;;;;6.57;83.55;101749.41;5088148;28;19978;-51
2023/01/10 07:09:33;;;;;;;;;;;;;;;6.57;83.56;101745.97;5088907;28;19920;-49
2023/01/10 07:11:58;;;;;;;;;;;;;;;6.55;83.51;101751.00;5085891;28;19920;-50
2023/01/10 07:14:23;;;;;;;;;;;;;;;6.54;83.38;101761.97;5089805;28;19924;-49
2023/01/10 07:16:49;;;;;;;;;;;;;;;6.53;83.31;101749.13;5088479;28;20399;-51
2023/01/10 07:19:16;;;;;;;;;;;;;;;6.52;83.58;101765.25;5088509;28;19931;-48
2023/01/10 07:21:41;;;;;;;;;;;;;;;6.51;83.42;101766.94;5091127;28;19928;-49
2023/01/10 07:24:07;;;;;;;;;;;;;;;6.51;83.49;101771.16;5082083;28;19981;-49
2023/01/10 07:26:32;;;;;;;;;;;;;;;6.45;83.53;101777.66;5086700;28;19912;-51
2023/01/10 07:28:57;;;;;;;;;;;;;;;6.45;83.59;101785.31;5093288;28;20253;-52
2023/01/10 07:31:23;;;;;;;;;;;;;;;6.44;83.85;101795.47;5088824;28;20026;-51
2023/01/10 07:33:49;;;;;;;;;;;;;;;6.45;84.04;101792.13;5093322;28;19916;-51
2023/01/10 07:36:15;;;;;;;;;;;;;;;6.46;83.87;101798.97;5091328;28;19916;-50
2023/01/10 07:38:40;;;;;;;;;;;;;;;6.44;83.67;101796.34;5093222;28;19961;-51
2023/01/10 07:41:05;;;;;;;;;;;;;;;6.45;83.91;101813.44;5090788;28;20001;-47
2023/01/10 07:43:31;;;;;;;;;;;;;;;6.47;84.11;101807.53;5092470;28;19916;-47
2023/01/10 07:45:57;;;;;;;;;;;;;;;6.48;83.72;101819.50;5098879;28;19930;-51
2023/01/10 07:48:22;;;;;;;;;;;;;;;6.48;83.90;101820.38;5090213;28;19931;-49
2023/01/10 07:50:47;;;;;;;;;;;;;;;6.48;84.05;101809.28;5090397;28;19931;-52
2023/01/10 07:53:13;;;;;;;;;;;;;;;6.48;84.16;101819.50;5091368;28;19924;-48
2023/01/10 07:55:38;;;;;;;;;;;;;;;6.49;84.03;101816.16;5093745;28;19916;-50
2023/01/10 07:58:06;;;;;;;;;;;;;;;6.49;84.02;101822.13;5090629;28;19924;-51
2023/01/10 08:00:32;;;;;;;;;;;;;;;6.51;84.01;101819.69;5094178;28;19916;-48
2023/01/10 08:02:57;;;;;;;;;;;;;;;6.51;83.92;101823.13;5083590;28;20017;-50
2023/01/10 08:05:22;;;;;;;;;;;;;;;6.53;83.92;101830.88;5082345;28;20291;-51
2023/01/10 08:07:47;;;;;;;;;;;;;;;6.54;83.80;101832.63;5086006;28;19946;-52
2023/01/10 08:10:13;;;;;;;;;;;;;;;6.53;83.92;101825.78;5079172;28;20637;-48
2023/01/10 08:12:38;;;;;;;;;;;;;;;6.53;83.74;101825.78;5084919;28;20016;-49
2023/01/10 08:15:03;;;;;;;;;;;;;;;6.54;83.64;101819.88;5084723;28;19969;-48
2023/01/10 08:17:31;;;;;;;;;;;;;;;6.55;83.66;101821.63;5081486;28;19931;-50
2023/01/10 08:19:56;;;;;;;;;;;;;;;6.57;83.47;101832.84;5084519;28;19918;-52
2023/01/10 08:22:22;;;;;;;;;;;;;;;6.59;83.37;101828.69;5086505;28;19919;-50
2023/01/10 08:24:47;;;;;;;;;;;;;;;6.60;83.29;101828.78;5085005;28;19982;-49
2023/01/10 08:27:12;;;;;;;;;;;;;;;6.61;83.19;101827.09;5085013;28;19923;-52
2023/01/10 08:29:37;;;;;;;;;;;;;;;6.62;82.94;101829.78;5087651;28;19941;-46
2023/01/10 08:32:03;;;;;;;;;;;;;;;6.63;82.73;101830.66;5081218;28;19928;-49
2023/01/10 08:34:28;;;;;;;;;;;;;;;6.63;82.93;101838.31;5084763;28;19912;-51
2023/01/10 08:36:54;;;;;;;;;;;;;;;6.64;82.92;101835.84;5085827;28;20486;-48
2023/01/10 08:39:21;;;;;;;;;;;;;;;6.66;82.89;101839.38;5087950;28;19916;-49
2023/01/10 08:41:46;;;;;;;;;;;;;;;6.65;83.07;101821.38;5082764;28;19973;-49
2023/01/10 08:44:14;;;;;;;;;;;;;;;6.66;82.60;101823.16;5083740;28;19928;-49
2023/01/10 08:46:39;;;;;;;;;;;;;;;6.67;82.41;101817.25;5080170;28;20010;-50
2023/01/10 08:49:04;;;;;;;;;;;;;;;6.69;82.62;101831.00;5089114;28;20019;-47
2023/01/10 08:51:30;;;;;;;;;;;;;;;6.69;82.36;101831.88;5086148;28;19982;-47
2023/01/10 08:53:55;;;;;;;;;;;;;;;6.70;82.33;101832.78;5087811;28;19920;-50
2023/01/10 08:56:20;;;;;;;;;;;;;;;6.69;82.39;101829.34;5081941;28;19946;-50
2023/01/10 08:58:45;;;;;;;;;;;;;;;6.68;82.14;101827.56;5085106;28;20257;-52
2023/01/10 09:01:13;;;;;;;;;;;;;;;6.70;82.25;101827.66;5086997;28;20280;-50
2023/01/10 09:03:38;;;;;;;;;;;;;;;6.69;82.31;101828.47;5083745;28;19916;-53
2023/01/10 09:06:04;;;;;;;;;;;;;;;6.69;82.46;101820.78;5084061;28;19916;-51
2023/01/10 09:08:29;;;;;;;;;;;;;;;6.70;82.00;101828.53;5088838;28;19923;-53
2023/01/10 09:10:57;;;;;;;;;;;;;;;6.72;82.35;101826.06;5082483;28;19973;-52
2023/01/10 09:13:22;;;;;;;;;;;;;;;6.72;82.55;101815.84;5080120;28;19924;-47
2023/01/10 09:15:50;;;;;;;;;;;;;;;6.73;82.24;101804.81;5083238;28;20308;-52
2023/01/10 09:18:15;;;;;;;;;;;;;;;6.74;82.37;101808.28;5083447;28;19912;-47
2023/01/10 09:20:41;;;;;;;;;;;;;;;6.75;82.04;101812.59;5087326;28;20006;-51
2023/01/10 09:23:07;;;;;;;;;;;;;;;6.77;82.39;101814.44;5087436;28;19940;-48
2023/01/10 09:25:33;;;;;;;;;;;;;;;6.78;82.22;101821.31;5067518;28;19924;-47
2023/01/10 09:27:59;;;;;;;;;;;;;;;6.77;82.42;101822.09;5084179;28;19943;-49
2023/01/10 09:30:25;;;;;;;;;;;;;;;6.77;82.20;101817.00;5081592;28;19923;-50
2023/01/10 09:32:50;;;;;;;;;;;;;;;6.78;82.35;101813.63;5082423;28;19911;-50
2023/01/10 09:35:16;;;;;;;;;;;;;;;6.78;82.18;101813.63;5083726;28;20281;-46
2023/01/10 09:37:41;;;;;;;;;;;;;;;6.79;82.48;101817.06;5081728;28;20019;-48
2023/01/10 09:40:07;;;;;;;;;;;;;;;6.79;82.33;101815.41;5083998;28;20385;-47
2023/01/10 09:42:41;;;;;;;;;;;;;;;6.80;82.27;101816.31;5080953;28;19919;-49
2023/01/10 09:45:06;;;;;;;;;;;;;;;6.79;82.28;101815.41;5082075;28;19916;-51
2023/01/10 09:47:49;;;;;;;;;;;;;;;6.80;82.48;101809.53;5081774;28;19922;-51
2023/01/10 09:50:34;;;;;;;;;;;;;;;6.83;82.43;101811.38;5079144;28;20334;-51
2023/01/10 09:53:00;;;;;;;;;;;;;;;6.86;82.52;101809.88;5085841;28;19912;-51
2023/01/10 09:55:29;;;;;;;;;;;;;;;6.89;82.42;101804.94;5085428;28;19969;-50
2023/01/10 09:57:57;;;;;;;;;;;;;;;6.91;82.30;101807.56;5084706;28;19990;-49
2023/01/10 10:00:26;;;;;;;;;;;;;;;6.92;82.48;101806.81;5080910;28;19915;-50
2023/01/10 10:02:52;;;;;;;;;;;;;;;6.93;82.25;101812.00;5084563;28;20466;-49
2023/01/10 10:05:19;;;;;;;;;;;;;;;6.93;82.11;101803.44;5083177;28;20034;-51
2023/01/10 10:07:49;;;;;;;;;;;;;;;6.96;81.99;101821.50;5086241;28;19923;-50
2023/01/10 10:10:21;;;;;;;;;;;;;;;6.96;81.81;101819.81;5082167;28;20373;-47
2023/01/10 10:12:54;;;;;;;;;;;;;;;6.98;81.87;101808.03;5080406;28;19974;-49
2023/01/10 10:15:19;;;;;;;;;;;;;;;7.01;81.62;101806.44;5081438;28;19919;-48
2023/01/10 10:17:55;;;;;;;;;;;;;;;7.04;81.89;101799.81;5081995;28;20360;-45
2023/01/10 10:20:29;;;;;;;;;;;;;;;7.06;81.74;101790.56;5076417;28;19916;-51
2023/01/10 10:23:10;;;;;;;;;;;;;;;7.07;81.92;101791.44;5075790;28;19918;-51
2023/01/10 10:25:44;;;;;;;;;;;;;;;7.09;81.89;101785.59;5086668;28;19934;-49
2023/01/10 10:28:09;;;;;;;;;;;;;;;7.10;81.60;101776.25;5083852;28;20315;-50
2023/01/10 10:30:55;;;;;;;;;;;;;;;7.11;81.96;101788.28;5085111;28;19920;-51
2023/01/10 10:33:21;;;;;;;;;;;;;;;7.12;81.81;101774.69;5082356;28;19927;-50
2023/01/10 10:35:56;;;;;;;;;;;;;;;7.12;82.17;101783.22;5087319;28;19911;-48
2023/01/10 10:38:25;;;;;;;;;;;;;;;7.12;81.82;101774.69;5086440;28;19912;-50
2023/01/10 10:40:51;;;;;;;;;;;;;;;7.11;81.79;101767.81;5081717;28;19939;-48
2023/01/10 10:43:20;;;;;;;;;;;;;;;7.12;82.24;101757.66;5086332;28;19916;-50
2023/01/10 10:45:54;;;;;;;;;;;;;;;7.13;82.11;101749.19;5084216;28;19957;-51
2023/01/10 10:48:30;;;;;;;;;;;;;;;7.16;81.99;101746.81;5079578;28;19912;-51
2023/01/10 10:51:06;;;;;;;;;;;;;;;7.16;81.96;101744.25;5081407;28;19922;-52
2023/01/10 10:53:33;;;;;;;;;;;;;;;7.19;82.37;101743.53;5084689;28;19931;-49
2023/01/10 10:55:59;;;;;;;;;;;;;;;7.21;82.15;101734.25;5089817;28;19931;-48
2023/01/10 10:58:24;;;;;;;;;;;;;;;7.23;82.27;101740.34;5082053;28;20507;-50
2023/01/10 11:00:50;;;;;;;;;;;;;;;7.24;82.33;101739.56;5084840;28;20408;-45
2023/01/10 11:03:18;;;;;;;;;;;;;;;7.26;82.41;101732.84;5081901;28;20412;-51
2023/01/10 11:05:45;;;;;;;;;;;;;;;7.28;82.29;101733.81;5087279;28;20289;-46
2023/01/10 11:08:12;;;;;;;;;;;;;;;7.29;82.35;101733.03;5080626;28;20374;-50
2023/01/10 11:10:38;;;;;;;;;;;;;;;7.31;82.28;101723.75;5081485;28;19931;-51
2023/01/10 11:13:23;;;;;;;;;;;;;;;7.33;82.29;101719.56;5081290;28;19920;-52
2023/01/10 11:15:49;;;;;;;;;;;;;;;7.36;82.52;101718.88;5079057;28;19920;-52
2023/01/10 11:18:19;;;;;;;;;;;;;;;7.37;82.44;101711.28;5080691;28;20288;-50
2023/01/10 11:20:57;;;;;;;;;;;;;;;7.39;82.53;101703.69;5077147;28;19917;-51
2023/01/10 11:23:36;;;;;;;;;;;;;;;7.41;82.51;101705.53;5080347;28;19927;-45
2023/01/10 11:26:02;;;;;;;;;;;;;;;7.42;82.64;101707.31;5082680;28;19912;-52
2023/01/10 11:28:30;;;;;;;;;;;;;;;7.44;82.62;101705.69;5081276;28;19922;-47
2023/01/10 11:30:55;;;;;;;;;;;;;;;7.46;82.79;101711.78;5087594;28;20347;-49
2023/01/10 11:33:24;;;;;;;;;;;;;;;7.48;82.57;101710.19;5084675;28;19929;-52
2023/01/10 11:36:19;;;;;;;;;;;;;;;7.50;82.41;101718.81;5084065;28;19931;-49
2023/01/10 11:38:57;;;;;;;;;;;;;;;7.51;82.37;101710.34;5059070;28;20381;-50
2023/01/10 11:41:26;;;;;;;;;;;;;;;7.52;82.21;101701.88;5080024;28;20376;-53
2023/01/10 11:43:51;;;;;;;;;;;;;;;7.55;82.36;101695.16;5086797;28;19920;-48
2023/01/10 11:46:19;;;;;;;;;;;;;;;7.55;82.28;101684.94;5083986;28;19924;-47
2023/01/10 11:48:50;;;;;;;;;;;;;;;7.56;82.11;101686.69;5084622;28;19912;-48
2023/01/10 11:51:23;;;;;;;;;;;;;;;7.55;82.36;101690.91;5085885;28;19915;-49
2023/01/10 11:53:57;;;;;;;;;;;;;;;7.57;82.21;101684.19;5084654;28;19920;-46
2023/01/10 11:56:25;;;;;;;;;;;;;;;7.58;82.42;101679.97;5085670;28;19926;-47
2023/01/10 11:58:51;;;;;;;;;;;;;;;7.60;82.33;101691.19;5084177;28;20281;-50
2023/01/10 12:01:39;;;;;;;;;;;;;;;7.61;82.09;101688.69;5086912;28;19937;-49
2023/01/10 12:04:04;;;;;;;;;;;;;;;7.61;82.35;101681.00;5080917;28;20476;-42
2023/01/10 12:06:31;;;;;;;;;;;;;;;7.63;82.47;101676.84;5085307;28;20035;-47
2023/01/10 12:08:57;;;;;;;;;;;;;;;7.64;82.00;101676.03;5082230;28;20292;-49
2023/01/10 12:11:23;;;;;;;;;;;;;;;7.67;82.21;101667.66;5087045;28;19924;-51
2023/01/10 12:13:50;;;;;;;;;;;;;;;7.67;82.02;101659.97;5083567;28;19920;-51
2023/01/10 12:16:24;;;;;;;;;;;;;;;7.68;81.87;101657.50;5084900;28;20058;-46
2023/01/10 12:18:51;;;;;;;;;;;;;;;7.68;81.88;101648.94;5087083;28;20285;-51
2023/01/10 12:21:29;;;;;;;;;;;;;;;7.69;81.51;101655.81;5082252;28;20015;-51
2023/01/10 12:23:57;;;;;;;;;;;;;;;7.70;81.68;101644.75;5079927;28;19999;-49
2023/01/10 12:26:23;;;;;;;;;;;;;;;7.70;81.74;101632.84;5081241;28;19920;-45
2023/01/10 12:28:56;;;;;;;;;;;;;;;7.71;81.59;101637.19;5082879;28;19920;-50
2023/01/10 12:31:22;;;;;;;;;;;;;;;7.73;81.53;101624.47;5084415;28;19923;-47
2023/01/10 12:33:54;;;;;;;;;;;;;;;7.74;81.84;101632.22;5083755;28;20935;-49
2023/01/10 12:36:25;;;;;;;;;;;;;;;7.74;81.38;101631.34;5081289;28;19924;-46
2023/01/10 12:39:13;;;;;;;;;;;;;;;7.73;81.36;101609.97;5093780;27;20400;-47
2023/01/10 12:44:44;;;;;;;;;;;;;;;7.73;81.18;101607.41;5078669;28;20001;-51
2023/01/10 12:47:29;;;;;;;;;;;;;;;7.74;81.21;101600.63;5080487;28;19912;-49
2023/01/10 12:49:57;;;;;;;;;;;;;;;7.73;81.45;101594.63;5084565;28;19961;-47
2023/01/10 12:52:51;;;;;;;;;;;;;;;7.75;81.53;101595.56;5081433;28;19962;-49
2023/01/10 12:55:18;;;;;;;;;;;;;;;7.74;80.81;101595.50;5079257;28;19991;-52
2023/01/10 12:57:47;;;;;;;;;;;;;;;7.74;80.99;101600.63;5086905;28;20007;-47
2023/01/10 13:00:23;;;;;;;;;;;;;;;7.74;81.21;101590.38;5083474;28;19953;-48
2023/01/10 13:02:51;;;;;;;;;;;;;;;7.75;81.03;101594.69;5082156;28;19911;-51